EETN/TLL METAR and TAF weather

Enter ICAO airport designator
Station Type Date Time Source
EETN METAR 2018/07/21 13:20 UTC NOAA

EETN 211320Z 32009KT 9999 FEW048 24/17 Q1005 NOSIG


Station Type Date Time Source
EETN Decoded METAR 2018/07/21 13:20 UTC NOAA

Tallinn, Estonia (EETN) 59-24N 024-49E 34M
Jul 21, 2018 - 09:20 AM EDT / 2018.07.21 1320 UTC
Wind: from the NW (320 degrees) at 10 MPH (9 KT):0
Visibility: greater than 7 mile(s):0
Sky conditions: mostly clear
Temperature: 75 F (24 C)
Dew Point: 62 F (17 C)
Relative Humidity: 64%
Pressure (altimeter): 29.68 in. Hg (1005 hPa)
ob: EETN 211320Z 32009KT 9999 FEW048 24/17 Q1005 NOSIG
cycle: 13

Station Type Date Time Source
EETN TAF 2018/07/21 12:33 UTC NOAA

TAF TAF EETN 211130Z 2112/2212 32012KT 9999 SCT025
TEMPO 2112/2118 SCT020CB PROB40
TEMPO 2112/2118 4000 TSRA
BECMG 2118/2120 24008KT
TEMPO 2120/2204 0500 FG VV002
BECMG 2204/2206 SCT008 SCT020CB


Example: see airport list